Time;durP1;ratioP1;P1;durP2;ratioP2;P2;SDS_P1;SDS_P2;PMS_P1;PMS_P2;Temp;Humidity;BMP_temperature;BMP_pressure;BME280_temperature;BME280_humidity;BME280_pressure;Samples;Min_cycle;Max_cycle;Signal;HPM_P1;HPM_P2
2024/01/10 00:09:26;;;;;;;80.00;25.80;;;;;;;-2.23;78.49;102173.55;681371;1262;140339;-81
2024/01/10 00:24:30;;;;;;;89.30;26.30;;;;;;;-2.16;79.61;102160.99;681413;1259;139796;-81
2024/01/10 00:39:34;;;;;;;78.40;26.30;;;;;;;-2.11;80.69;102139.55;681552;1258;140612;-80
2024/01/10 00:54:38;;;;;;;70.50;24.10;;;;;;;-2.01;81.03;102129.52;681332;1262;140075;-80
2024/01/10 01:09:42;;;;;;;68.40;22.60;;;;;;;-2.08;81.59;102115.86;681489;1262;139872;-80
2024/01/10 01:24:47;;;;;;;57.40;20.10;;;;;;;-2.12;81.99;102126.17;681781;1259;139781;-80
2024/01/10 01:39:51;;;;;;;50.20;17.00;;;;;;;-2.04;81.76;102131.62;681488;1262;139666;-80
2024/01/10 01:54:54;;;;;;;48.90;17.40;;;;;;;-2.16;82.54;102134.25;681663;1262;139316;-80
2024/01/10 02:09:58;;;;;;;27.40;10.90;;;;;;;-2.03;82.56;102124.40;681367;1259;139769;-80
2024/01/10 02:25:06;;;;;;;50.10;17.60;;;;;;;-1.99;82.81;102119.73;681504;1262;139608;-80
2024/01/10 02:40:11;;;;;;;100.40;30.20;;;;;;;-1.90;83.99;102110.94;681513;1259;141789;-80
2024/01/10 02:55:14;;;;;;;91.70;25.80;;;;;;;-1.65;84.20;102095.48;681641;1259;140558;-80
2024/01/10 03:10:18;;;;;;;48.80;15.60;;;;;;;-1.49;83.98;102086.77;681456;1262;140225;-80
2024/01/10 03:25:22;;;;;;;41.70;15.20;;;;;;;-1.54;84.23;102074.80;681843;1259;139503;-80
2024/01/10 03:40:26;;;;;;;40.90;13.00;;;;;;;-1.50;84.53;102071.33;681381;1262;139301;-80
2024/01/10 03:55:30;;;;;;;80.10;19.70;;;;;;;-1.42;84.83;102050.67;681404;1262;139538;-80
2024/01/10 04:10:33;;;;;;;62.00;20.30;;;;;;;-1.21;85.26;102037.74;681195;1262;139809;-80
2024/01/10 04:25:37;;;;;;;42.00;17.00;;;;;;;-1.02;85.30;102029.11;681453;1259;139830;-80
2024/01/10 04:40:42;;;;;;;45.20;18.40;;;;;;;-1.02;85.01;102026.54;681431;1262;139355;-80
2024/01/10 04:55:45;;;;;;;30.20;12.70;;;;;;;-1.13;86.26;102021.52;681396;1260;138947;-79
2024/01/10 05:10:53;;;;;;;110.90;36.70;;;;;;;-1.14;87.22;102017.76;681310;1262;140026;-80
2024/01/10 05:25:57;;;;;;;108.90;34.20;;;;;;;-1.02;88.31;102007.98;681467;1265;139410;-80
2024/01/10 05:41:01;;;;;;;111.00;35.70;;;;;;;-0.79;88.04;102003.59;681325;1265;140305;-81
2024/01/10 05:56:07;;;;;;;80.30;27.20;;;;;;;-0.76;87.98;102009.39;681512;1260;139089;-81
2024/01/10 06:11:13;;;;;;;40.60;15.10;;;;;;;-0.77;87.83;102009.58;681429;1263;139755;-80
2024/01/10 06:26:16;;;;;;;48.10;18.20;;;;;;;-0.76;88.14;102003.03;681495;1262;138887;-80
2024/01/10 06:41:24;;;;;;;122.00;41.40;;;;;;;-0.63;88.47;102003.37;681188;1265;140536;-80
2024/01/10 06:56:28;;;;;;;49.90;19.90;;;;;;;-0.41;88.35;102013.04;681542;1262;139657;-80
2024/01/10 07:11:33;;;;;;;199.40;63.70;;;;;;;-0.62;88.85;102006.45;681330;1262;139007;-81
2024/01/10 07:26:38;;;;;;;81.30;24.90;;;;;;;-0.65;89.26;102011.83;681343;1262;165026;-81
2024/01/10 07:41:43;;;;;;;61.40;21.40;;;;;;;-0.46;89.26;102023.41;681324;1274;139259;-81
2024/01/10 07:56:48;;;;;;;34.90;15.20;;;;;;;-0.43;89.59;102018.91;681099;1272;140420;-81
2024/01/10 08:11:52;;;;;;;57.20;25.30;;;;;;;-0.39;90.26;102019.52;681711;1262;139712;-80
2024/01/10 08:26:56;;;;;;;47.60;19.00;;;;;;;-0.28;90.02;102004.58;681530;1263;140770;-81
2024/01/10 08:42:01;;;;;;;88.80;30.20;;;;;;;-0.25;90.53;101990.78;681504;1262;139070;-82
2024/01/10 08:57:05;;;;;;;71.60;26.40;;;;;;;0.01;90.54;101994.84;681268;1273;139230;-81
2024/01/10 09:12:10;;;;;;;90.30;35.40;;;;;;;0.18;90.69;102011.08;681318;1265;139323;-81
2024/01/10 09:27:16;;;;;;;122.90;44.00;;;;;;;0.21;90.64;102013.79;681535;1266;138659;-82
2024/01/10 09:42:26;;;;;;;98.90;28.20;;;;;;;0.32;90.85;101991.90;681698;1263;139433;-80
2024/01/10 09:57:36;;;;;;;71.30;27.60;;;;;;;0.36;91.59;101964.45;681504;1263;138928;-80
2024/01/10 10:12:56;;;;;;;103.10;31.30;;;;;;;0.62;92.09;101967.41;681553;1263;139290;-80
2024/01/10 10:28:03;;;;;;;53.00;20.50;;;;;;;0.53;92.06;101971.04;682132;1263;138475;-79
2024/01/10 10:43:16;;;;;;;95.30;36.10;;;;;;;0.57;92.14;101971.98;682217;1263;138269;-79
2024/01/10 10:58:21;;;;;;;75.00;26.60;;;;;;;0.86;91.97;101959.17;682004;1264;138331;-80
2024/01/10 11:13:52;;;;;;;56.30;23.10;;;;;;;0.93;91.70;101944.22;682143;1260;139269;-80
2024/01/10 11:28:57;;;;;;;53.20;19.60;;;;;;;0.74;92.57;101942.91;681752;1260;138196;-80
2024/01/10 11:44:11;;;;;;;171.50;59.70;;;;;;;0.67;93.75;101921.67;682128;1261;139718;-80
2024/01/10 11:59:20;;;;;;;127.90;40.00;;;;;;;0.89;93.71;101901.42;682111;1260;138922;-80
2024/01/10 12:14:28;;;;;;;203.00;69.50;;;;;;;1.00;93.93;101894.79;682335;1261;138882;-80
2024/01/10 12:29:33;;;;;;;127.80;42.50;;;;;;;0.96;93.61;101886.77;681888;1263;138301;-81
2024/01/10 12:44:36;;;;;;;120.60;34.80;;;;;;;0.92;94.20;101883.09;682162;1264;138590;-81
2024/01/10 12:59:40;;;;;;;127.80;39.30;;;;;;;1.02;94.35;101874.41;682143;1264;139210;-79
2024/01/10 13:14:44;;;;;;;76.20;25.50;;;;;;;1.04;94.29;101865.23;681989;1266;140272;-80
2024/01/10 13:29:49;;;;;;;103.40;34.40;;;;;;;1.09;94.28;101850.82;682012;1263;138275;-79
2024/01/10 13:44:53;;;;;;;133.80;41.90;;;;;;;1.12;94.27;101845.41;681993;1268;139673;-80
2024/01/10 13:59:57;;;;;;;94.00;31.50;;;;;;;1.20;94.30;101837.64;682217;1259;139948;-80
2024/01/10 14:15:01;;;;;;;187.30;53.30;;;;;;;1.27;94.31;101826.43;682088;1263;140683;-81
2024/01/10 14:30:08;;;;;;;112.90;38.50;;;;;;;1.16;94.66;101814.81;682016;1262;138241;-80
2024/01/10 14:45:12;;;;;;;105.60;38.10;;;;;;;1.09;94.66;101815.83;682172;1265;139433;-79
2024/01/10 15:00:16;;;;;;;112.10;46.10;;;;;;;1.24;94.40;101808.42;682409;1259;138957;-80
2024/01/10 15:15:21;;;;;;;68.90;32.10;;;;;;;1.34;94.00;101796.08;682230;1260;139196;-80
2024/01/10 15:30:27;;;;;;;119.50;46.80;;;;;;;1.40;93.07;101796.98;682139;1260;137953;-80
2024/01/10 15:45:44;;;;;;;125.50;40.60;;;;;;;1.38;92.90;101780.48;682178;1263;139919;-80
2024/01/10 16:00:47;;;;;;;122.90;41.60;;;;;;;1.35;93.32;101758.65;682014;1263;138456;-81
2024/01/10 16:15:55;;;;;;;117.30;37.90;;;;;;;1.41;93.10;101739.03;681933;1262;140443;-81
2024/01/10 16:31:00;;;;;;;288.20;88.70;;;;;;;1.27;92.39;101713.52;682119;1263;139893;-80
2024/01/10 16:46:04;;;;;;;136.60;41.80;;;;;;;1.20;93.54;101701.48;681960;1262;139274;-80
2024/01/10 17:01:14;;;;;;;140.20;47.90;;;;;;;1.26;93.28;101683.23;682083;1264;139239;-81
2024/01/10 17:16:18;;;;;;;105.10;37.30;;;;;;;1.32;93.36;101667.70;682148;1263;140148;-81
2024/01/10 17:31:22;;;;;;;160.70;72.20;;;;;;;1.14;93.19;101652.86;681967;1260;139983;-80
2024/01/10 17:46:26;;;;;;;90.70;32.10;;;;;;;1.04;92.56;101652.98;682090;1264;139240;-80
2024/01/10 18:01:30;;;;;;;83.70;34.30;;;;;;;1.04;92.88;101664.49;682127;1260;139323;-80
2024/01/10 18:16:34;;;;;;;80.40;30.90;;;;;;;1.12;92.73;101657.73;681972;1263;139985;-81
2024/01/10 18:31:37;;;;;;;79.80;32.10;;;;;;;0.98;92.38;101637.77;682170;1265;140916;-81
2024/01/10 18:46:41;;;;;;;80.90;29.10;;;;;;;0.88;92.38;101621.51;682037;1265;138455;-81
2024/01/10 19:01:47;;;;;;;64.70;27.10;;;;;;;0.94;92.52;101622.89;682121;1264;139330;-81
2024/01/10 19:16:51;;;;;;;139.70;43.30;;;;;;;1.07;92.14;101620.33;682189;1263;139992;-80
2024/01/10 19:31:55;;;;;;;92.00;27.30;;;;;;;0.84;92.39;101594.73;682067;1264;158341;-80
2024/01/10 19:47:00;;;;;;;73.90;27.40;;;;;;;0.68;93.04;101577.40;682081;1259;138910;-80
2024/01/10 20:02:09;;;;;;;68.00;28.40;;;;;;;0.62;94.35;101561.55;682129;1265;138569;-79
2024/01/10 20:17:16;;;;;;;66.50;23.90;;;;;;;0.63;94.42;101543.26;682124;1266;138891;-78
2024/01/10 20:32:19;;;;;;;98.10;40.30;;;;;;;0.56;94.47;101547.75;682191;1263;139455;-78
2024/01/10 20:47:27;;;;;;;84.60;29.60;;;;;;;0.60;94.35;101562.45;682235;1259;139497;-78
2024/01/10 21:02:34;;;;;;;103.70;35.20;;;;;;;0.50;95.20;101537.58;682161;1265;138895;-78
2024/01/10 21:17:38;;;;;;;59.30;23.20;;;;;;;0.48;95.60;101512.33;682093;1263;140298;-79
2024/01/10 21:32:44;;;;;;;55.40;19.50;;;;;;;0.23;96.50;101485.09;682035;1264;139065;-78
2024/01/10 21:47:48;;;;;;;71.70;21.00;;;;;;;0.11;96.89;101463.36;682079;1260;138386;-78
2024/01/10 22:02:52;;;;;;;83.20;26.00;;;;;;;0.22;96.66;101447.77;682161;1264;138989;-78
2024/01/10 22:18:00;;;;;;;51.30;19.00;;;;;;;0.15;96.69;101404.92;682172;1263;139057;-81
2024/01/10 22:33:04;;;;;;;31.00;13.60;;;;;;;0.24;96.72;101396.44;682216;1263;138875;-79
2024/01/10 22:48:08;;;;;;;39.30;14.50;;;;;;;0.11;97.15;101349.14;681689;1263;138916;-79
2024/01/10 23:03:11;;;;;;;42.30;13.70;;;;;;;-0.02;97.87;101316.64;682247;1265;138735;-79
2024/01/10 23:18:19;;;;;;;77.10;24.90;;;;;;;-0.03;98.91;101261.95;682071;1264;140114;-80
2024/01/10 23:33:22;;;;;;;34.40;12.30;;;;;;;0.17;97.69;101248.50;682173;1265;139256;-79
2024/01/10 23:48:26;;;;;;;26.60;10.60;;;;;;;-0.02;98.83;101231.13;682160;1260;139798;-79
